Time;durP1;ratioP1;P1;durP2;ratioP2;P2;SDS_P1;SDS_P2;PMS_P1;PMS_P2;Temp;Humidity;BMP_temperature;BMP_pressure;BME280_temperature;BME280_humidity;BME280_pressure;Samples;Min_cycle;Max_cycle;Signal;HPM_P1;HPM_P2
2022/06/12 00:00:37;;;;;;;1.85;1.75;;;22.40;83.80;;;;;;6204709;23;20000;-80
2022/06/12 00:03:06;;;;;;;1.85;1.75;;;22.50;84.00;;;;;;6208888;23;20004;-80
2022/06/12 00:05:35;;;;;;;1.75;1.60;;;22.50;83.70;;;;;;6206334;23;19996;-80
2022/06/12 00:08:02;;;;;;;2.33;2.13;;;22.50;84.40;;;;;;6208805;23;20445;-80
2022/06/12 00:10:29;;;;;;;2.60;1.98;;;22.50;84.60;;;;;;6205292;23;20062;-80
2022/06/12 00:12:55;;;;;;;1.90;1.80;;;22.50;84.70;;;;;;6209815;23;20083;-80
2022/06/12 00:15:24;;;;;;;1.83;1.73;;;22.50;84.90;;;;;;6204936;23;20005;-80
2022/06/12 00:17:50;;;;;;;5.65;1.95;;;22.40;85.40;;;;;;6208619;23;20087;-80
2022/06/12 00:20:17;;;;;;;1.70;1.58;;;22.40;85.70;;;;;;6179562;23;20476;-80
2022/06/12 00:22:44;;;;;;;1.95;1.85;;;22.40;85.80;;;;;;6209454;23;20006;-80
2022/06/12 00:25:13;;;;;;;1.95;1.70;;;22.40;86.00;;;;;;6205757;23;20000;-80
2022/06/12 00:27:39;;;;;;;3.15;1.90;;;22.40;86.10;;;;;;6209136;23;20000;-80
2022/06/12 00:30:08;;;;;;;3.03;1.85;;;22.30;86.30;;;;;;6205050;23;20031;-80
2022/06/12 00:32:35;;;;;;;7.03;1.50;;;22.20;86.70;;;;;;6209162;23;20004;-80
2022/06/12 00:35:02;;;;;;;4.15;2.00;;;22.20;86.80;;;;;;6179786;23;20005;-80
2022/06/12 00:37:28;;;;;;;1.90;1.80;;;22.20;86.80;;;;;;6208820;23;20004;-80
2022/06/12 00:39:55;;;;;;;2.10;1.98;;;22.20;87.00;;;;;;6205247;23;20131;-80
2022/06/12 00:42:33;;;;;;;1.85;1.75;;;22.20;87.50;;;;;;6209843;23;20380;-80
2022/06/12 00:45:20;;;;;;;2.08;1.90;;;22.30;87.30;;;;;;6177971;23;20020;-80
2022/06/12 00:47:46;;;;;;;2.10;1.63;;;22.20;88.00;;;;;;6209705;23;20040;-74
2022/06/12 00:50:14;;;;;;;2.85;2.22;;;22.10;88.30;;;;;;6206464;23;20039;-74
2022/06/12 00:52:47;;;;;;;1.73;1.63;;;22.00;88.80;;;;;;6209426;23;20007;-74
2022/06/12 00:55:41;;;;;;;2.00;1.90;;;22.00;89.20;;;;;;6177767;23;20012;-74
2022/06/12 00:58:18;;;;;;;4.40;1.83;;;21.90;89.70;;;;;;6182149;23;20012;-74
2022/06/12 01:00:45;;;;;;;2.30;1.88;;;21.90;90.20;;;;;;6206556;23;20019;-74
2022/06/12 01:03:11;;;;;;;1.98;1.88;;;21.80;90.30;;;;;;6207337;23;20119;-74
2022/06/12 01:08:23;;;;;;;1.90;1.60;;;21.80;90.50;;;;;;6205770;23;20071;-74
2022/06/12 01:10:54;;;;;;;2.85;1.90;;;21.80;90.70;;;;;;6205810;23;20337;-74
2022/06/12 01:13:41;;;;;;;2.97;2.10;;;21.80;90.90;;;;;;6205317;23;20079;-74
2022/06/12 01:16:14;;;;;;;3.17;1.67;;;21.70;91.00;;;;;;6205441;23;20005;-73
2022/06/12 01:18:51;;;;;;;2.97;1.90;;;21.70;91.00;;;;;;6205036;23;20159;-80
2022/06/12 01:21:55;;;;;;;2.50;2.00;;;21.70;91.10;;;;;;6209904;23;20456;-80
2022/06/12 01:24:38;;;;;;;1.77;1.65;;;21.80;91.00;;;;;;6192083;23;20341;-80
2022/06/12 01:27:16;;;;;;;2.13;1.77;;;21.70;91.10;;;;;;6212938;23;20084;-80
2022/06/12 01:30:04;;;;;;;2.20;2.10;;;21.70;91.30;;;;;;6185718;23;20375;-79
2022/06/12 01:32:52;;;;;;;2.33;1.58;;;21.60;91.40;;;;;;6212549;23;20012;-80
2022/06/12 01:35:18;;;;;;;4.40;1.90;;;21.60;91.70;;;;;;6212628;23;20080;-80
2022/06/12 01:37:43;;;;;;;2.50;2.15;;;21.50;91.90;;;;;;6185256;23;20035;-80
2022/06/12 01:40:47;;;;;;;3.13;1.58;;;21.60;92.00;;;;;;6212593;23;20008;-80
2022/06/12 01:43:13;;;;;;;4.65;1.98;;;21.50;92.00;;;;;;6212449;23;20353;-80
2022/06/12 01:45:43;;;;;;;2.67;2.00;;;21.60;92.00;;;;;;6212219;23;20130;-80
2022/06/12 01:48:37;;;;;;;2.72;1.80;;;21.50;92.00;;;;;;6212549;23;20000;-80
2022/06/12 01:51:14;;;;;;;2.30;2.10;;;21.50;92.00;;;;;;6212354;23;20393;-80
2022/06/12 01:54:01;;;;;;;1.90;1.80;;;21.60;92.00;;;;;;6212437;23;20051;-80
2022/06/12 01:56:37;;;;;;;5.65;1.60;;;21.60;92.10;;;;;;6212086;23;20000;-80
2022/06/12 01:59:21;;;;;;;3.38;2.00;;;21.50;92.30;;;;;;6211261;23;20005;-80
2022/06/12 02:02:03;;;;;;;4.10;2.10;;;21.50;92.50;;;;;;6211080;23;20362;-80
2022/06/12 02:04:47;;;;;;;2.92;1.77;;;21.50;92.50;;;;;;6211178;23;20054;-80
2022/06/12 02:07:27;;;;;;;2.70;1.98;;;21.50;92.50;;;;;;6213140;23;20004;-80
2022/06/12 02:10:08;;;;;;;2.47;1.65;;;21.50;92.70;;;;;;6186750;23;20012;-80
2022/06/12 02:15:43;;;;;;;2.90;1.92;;;21.40;93.10;;;;;;6215353;23;20032;-81
2022/06/12 02:18:19;;;;;;;4.75;2.20;;;21.30;93.30;;;;;;6188089;23;20054;-80
2022/06/12 02:21:00;;;;;;;5.53;2.13;;;21.30;93.40;;;;;;6215497;23;20433;-81
2022/06/12 02:23:32;;;;;;;5.03;2.22;;;21.30;93.20;;;;;;6215135;23;20001;-80
2022/06/12 02:26:00;;;;;;;2.33;2.08;;;21.30;93.50;;;;;;6215459;23;20083;-80
2022/06/12 02:28:38;;;;;;;2.25;2.15;;;21.30;93.40;;;;;;6188827;23;20079;-80
2022/06/12 02:31:12;;;;;;;2.05;1.95;;;21.30;93.50;;;;;;6215249;23;20087;-80
2022/06/12 02:33:41;;;;;;;2.97;2.22;;;21.40;93.40;;;;;;6215324;23;20004;-80
2022/06/12 02:36:17;;;;;;;1.70;1.60;;;21.40;93.30;;;;;;6215215;23;20001;-80
2022/06/12 02:38:48;;;;;;;2.10;1.90;;;21.40;93.20;;;;;;6215190;23;20005;-80
2022/06/12 02:41:28;;;;;;;2.25;1.88;;;21.40;93.10;;;;;;6215461;23;19997;-80
2022/06/12 02:43:58;;;;;;;4.85;2.50;;;21.40;93.20;;;;;;6215450;23;20001;-81
2022/06/12 02:46:32;;;;;;;2.00;1.90;;;21.40;93.30;;;;;;6215246;23;20337;-81
2022/06/12 02:48:58;;;;;;;2.45;1.83;;;21.30;93.60;;;;;;6215151;23;20365;-81
2022/06/12 02:51:33;;;;;;;1.90;1.80;;;21.30;94.00;;;;;;6215166;23;20253;-80
2022/06/12 02:54:05;;;;;;;1.80;1.60;;;21.20;94.20;;;;;;6188609;23;20043;-80
2022/06/12 02:56:40;;;;;;;2.35;2.15;;;21.00;94.40;;;;;;6215080;23;20051;-80
2022/06/12 02:59:15;;;;;;;2.00;1.80;;;21.10;94.60;;;;;;6214986;23;20007;-81
2022/06/12 03:02:13;;;;;;;5.50;2.15;;;21.10;94.60;;;;;;6188725;23;20008;-81
2022/06/12 03:04:56;;;;;;;1.98;1.88;;;21.00;94.70;;;;;;6206673;23;20031;-80
2022/06/12 03:07:22;;;;;;;1.90;1.80;;;21.10;95.10;;;;;;6214993;23;20012;-80
2022/06/12 03:09:48;;;;;;;5.05;1.95;;;21.10;94.80;;;;;;6214871;23;20008;-80
2022/06/12 03:12:14;;;;;;;2.22;1.90;;;21.10;94.70;;;;;;6215012;23;20000;-80
2022/06/12 03:14:40;;;;;;;2.92;1.90;;;21.20;94.60;;;;;;6214739;23;20075;-80
2022/06/12 03:17:06;;;;;;;3.22;1.98;;;21.20;94.50;;;;;;6187699;23;20004;-80
2022/06/12 03:19:42;;;;;;;2.17;1.98;;;21.20;94.50;;;;;;6215008;23;20500;-81
2022/06/12 03:22:41;;;;;;;1.80;1.70;;;21.10;94.70;;;;;;6214745;23;20043;-80
2022/06/12 03:25:38;;;;;;;1.73;1.63;;;21.20;95.00;;;;;;6214716;23;20000;-80
2022/06/12 03:28:31;;;;;;;1.77;1.65;;;21.10;94.80;;;;;;6213682;23;20059;-80
2022/06/12 03:31:15;;;;;;;1.95;1.85;;;21.10;95.00;;;;;;6214713;23;20083;-80
2022/06/12 03:33:40;;;;;;;3.50;2.20;;;21.10;95.10;;;;;;6188155;23;20004;-80
2022/06/12 03:36:09;;;;;;;2.35;1.95;;;21.10;95.10;;;;;;6214603;23;20005;-80
2022/06/12 03:38:56;;;;;;;2.30;2.10;;;21.00;95.10;;;;;;6214730;23;20460;-81
2022/06/12 03:41:44;;;;;;;1.80;1.70;;;21.10;95.20;;;;;;6214740;23;20070;-80
2022/06/12 03:44:48;;;;;;;2.00;1.90;;;21.00;95.40;;;;;;6214329;23;20024;-80
2022/06/12 03:47:20;;;;;;;2.80;1.80;;;21.00;95.50;;;;;;6131812;23;20048;-80
2022/06/12 03:49:49;;;;;;;6.43;1.95;;;21.00;95.50;;;;;;6214681;23;20004;-80
2022/06/12 03:52:18;;;;;;;6.68;2.75;;;21.00;95.50;;;;;;6214829;23;20035;-80
2022/06/12 03:55:05;;;;;;;2.08;1.85;;;21.10;95.60;;;;;;6187879;23;20039;-80
2022/06/12 03:57:54;;;;;;;2.25;2.10;;;21.00;95.50;;;;;;6187832;23;20083;-81
2022/06/12 04:00:39;;;;;;;2.50;1.70;;;21.10;95.60;;;;;;6214732;23;20003;-81
2022/06/12 04:03:11;;;;;;;2.53;1.90;;;20.90;95.90;;;;;;6187889;23;20059;-80
2022/06/12 04:05:44;;;;;;;2.20;2.10;;;20.90;96.20;;;;;;6214399;23;20007;-80
2022/06/12 04:08:18;;;;;;;1.80;1.70;;;20.90;96.50;;;;;;6214513;23;20054;-81
2022/06/12 04:10:44;;;;;;;5.18;2.00;;;20.80;96.70;;;;;;6187790;23;20062;-80
2022/06/12 04:13:13;;;;;;;2.30;2.20;;;20.90;96.80;;;;;;6214592;23;20012;-81
2022/06/12 04:15:56;;;;;;;3.30;2.00;;;21.00;96.70;;;;;;6214252;23;20001;-80
2022/06/12 04:18:26;;;;;;;3.10;1.88;;;20.90;96.70;;;;;;6187555;23;20012;-80
2022/06/12 04:21:04;;;;;;;2.83;1.95;;;21.00;96.90;;;;;;6214409;23;20026;-80
2022/06/12 04:23:33;;;;;;;1.90;1.80;;;20.90;97.10;;;;;;6187871;23;20337;-81
2022/06/12 04:26:34;;;;;;;3.72;2.10;;;21.00;97.00;;;;;;6213727;23;20080;-81
2022/06/12 04:29:21;;;;;;;1.98;1.88;;;21.00;97.20;;;;;;6149915;23;20382;-81
2022/06/12 04:31:49;;;;;;;1.83;1.73;;;21.00;97.10;;;;;;6187816;23;20353;-80
2022/06/12 04:34:18;;;;;;;1.98;1.88;;;21.10;97.10;;;;;;6214197;23;20004;-80
2022/06/12 04:36:46;;;;;;;4.68;2.05;;;21.10;97.20;;;;;;6214190;23;20429;-80
2022/06/12 04:39:15;;;;;;;4.28;1.60;;;21.10;97.30;;;;;;6214200;23;20024;-80
2022/06/12 04:41:41;;;;;;;2.08;1.98;;;21.10;97.50;;;;;;6213859;23;20380;-80
2022/06/12 04:44:08;;;;;;;2.15;1.95;;;21.20;97.50;;;;;;6186852;23;20004;-80
2022/06/12 04:46:36;;;;;;;2.55;2.17;;;21.30;97.50;;;;;;6187449;23;20001;-80
2022/06/12 04:49:02;;;;;;;2.00;1.80;;;21.30;97.50;;;;;;6214024;23;20000;-80
2022/06/12 04:51:29;;;;;;;2.25;2.15;;;21.30;97.20;;;;;;6214133;23;20008;-81
2022/06/12 04:53:55;;;;;;;2.00;1.90;;;21.50;96.90;;;;;;6213893;23;20005;-80
2022/06/12 04:56:26;;;;;;;3.00;1.80;;;21.50;96.60;;;;;;6214152;23;20015;-80
2022/06/12 04:58:52;;;;;;;2.25;1.83;;;21.60;96.60;;;;;;6214054;23;20000;-81
2022/06/12 05:01:19;;;;;;;2.53;2.20;;;21.70;96.60;;;;;;6214006;23;19996;-80
2022/06/12 05:03:45;;;;;;;6.07;2.28;;;21.80;96.60;;;;;;6187343;23;20004;-80
2022/06/12 05:06:13;;;;;;;2.53;2.15;;;21.90;95.90;;;;;;6213999;23;20001;-80
2022/06/12 05:08:39;;;;;;;6.10;2.03;;;22.00;95.60;;;;;;6214014;23;20007;-80
2022/06/12 05:11:05;;;;;;;2.22;1.95;;;22.10;95.50;;;;;;6214079;23;20009;-79
2022/06/12 05:13:31;;;;;;;2.42;2.28;;;22.10;95.40;;;;;;6213658;23;20061;-80
2022/06/12 05:15:58;;;;;;;2.05;1.95;;;22.30;95.20;;;;;;6213821;23;20000;-80
2022/06/12 05:18:24;;;;;;;2.17;1.98;;;22.30;95.10;;;;;;6213513;23;20000;-80
2022/06/12 05:20:50;;;;;;;3.22;1.70;;;22.40;95.20;;;;;;6213643;23;20000;-80
2022/06/12 05:23:18;;;;;;;2.10;2.00;;;22.50;95.10;;;;;;6186962;23;20168;-80
2022/06/12 05:25:44;;;;;;;2.58;1.90;;;22.50;95.40;;;;;;6213555;23;20385;-80
2022/06/12 05:28:13;;;;;;;2.22;2.03;;;22.60;95.20;;;;;;6213499;23;20001;-79
2022/06/12 05:30:38;;;;;;;1.80;1.70;;;22.60;96.00;;;;;;6213724;23;20195;-80
2022/06/12 05:33:05;;;;;;;2.35;1.60;;;22.60;96.20;;;;;;6213740;23;20139;-80
2022/06/12 05:35:33;;;;;;;2.13;1.80;;;22.70;96.00;;;;;;6213535;23;20254;-80
2022/06/12 05:38:00;;;;;;;3.60;1.80;;;22.70;96.30;;;;;;6213578;23;20001;-80
2022/06/12 05:40:29;;;;;;;3.42;1.80;;;22.80;95.50;;;;;;6213356;23;19997;-80
2022/06/12 05:42:55;;;;;;;3.67;1.50;;;22.80;95.10;;;;;;6213656;23;20004;-80
2022/06/12 05:45:24;;;;;;;1.65;1.55;;;22.90;95.30;;;;;;6213473;23;20000;-80
2022/06/12 05:47:52;;;;;;;1.70;1.60;;;23.00;95.60;;;;;;6213602;23;20516;-80
2022/06/12 05:50:19;;;;;;;1.60;1.50;;;23.00;95.90;;;;;;6213440;23;20000;-79
2022/06/12 05:52:45;;;;;;;3.30;1.67;;;23.00;96.00;;;;;;6186604;23;20028;-80
2022/06/12 05:55:11;;;;;;;3.33;1.50;;;23.00;96.10;;;;;;6213535;23;20172;-80
2022/06/12 05:57:38;;;;;;;2.05;1.85;;;23.00;96.10;;;;;;6213455;23;20005;-79
2022/06/12 06:00:07;;;;;;;1.50;1.40;;;23.00;96.00;;;;;;6213583;23;20004;-80
2022/06/12 06:02:34;;;;;;;1.95;1.85;;;23.10;95.90;;;;;;6213442;23;20054;-80
2022/06/12 06:05:00;;;;;;;2.05;1.60;;;23.20;96.40;;;;;;6186667;23;20406;-80
2022/06/12 06:07:27;;;;;;;6.22;1.90;;;23.20;95.80;;;;;;6213566;23;20104;-80
2022/06/12 06:09:52;;;;;;;1.70;1.60;;;23.30;96.00;;;;;;6213463;23;20062;-80
2022/06/12 06:12:18;;;;;;;1.77;1.67;;;23.40;95.90;;;;;;6213643;23;20004;-79
2022/06/12 06:14:44;;;;;;;3.78;1.40;;;23.50;95.80;;;;;;6213398;23;20001;-80
2022/06/12 06:17:10;;;;;;;1.98;1.58;;;23.50;95.90;;;;;;6213327;23;20009;-79
2022/06/12 06:19:36;;;;;;;6.32;1.90;;;23.60;95.70;;;;;;6213097;23;20019;-80
2022/06/12 06:22:02;;;;;;;1.38;1.33;;;23.60;95.80;;;;;;6213311;23;20067;-80
2022/06/12 06:24:27;;;;;;;1.65;1.55;;;23.70;95.90;;;;;;6213402;23;20028;-80
2022/06/12 06:26:53;;;;;;;1.73;1.60;;;23.70;96.60;;;;;;6213142;23;20267;-80
2022/06/12 06:29:19;;;;;;;1.67;1.58;;;23.80;96.30;;;;;;6213418;23;20437;-79
2022/06/12 06:31:45;;;;;;;2.10;1.83;;;23.80;97.40;;;;;;6213165;23;20004;-80
2022/06/12 06:34:11;;;;;;;1.60;1.40;;;23.90;97.00;;;;;;6213431;23;20032;-80
2022/06/12 06:36:37;;;;;;;1.55;1.45;;;24.00;96.70;;;;;;6213591;23;20051;-79
2022/06/12 06:39:03;;;;;;;3.15;1.70;;;24.00;97.00;;;;;;6213246;23;20004;-79
2022/06/12 06:41:29;;;;;;;1.65;1.58;;;24.00;96.70;;;;;;6213374;23;20001;-79
2022/06/12 06:46:40;;;;;;;2.88;2.13;;;24.20;94.70;;;;;;6213373;23;20027;-80
2022/06/12 06:49:06;;;;;;;1.63;1.52;;;24.20;94.60;;;;;;6213173;23;20001;-79
2022/06/12 06:51:33;;;;;;;7.90;1.75;;;24.40;94.70;;;;;;6213693;23;20001;-79
2022/06/12 06:53:59;;;;;;;1.80;1.70;;;24.40;93.60;;;;;;6215158;23;19997;-79
2022/06/12 06:56:25;;;;;;;3.58;1.88;;;24.40;93.70;;;;;;6188174;23;20005;-79
2022/06/12 06:58:51;;;;;;;9.00;1.83;;;24.40;93.40;;;;;;6214916;23;20004;-79
2022/06/12 07:01:16;;;;;;;2.30;2.10;;;24.50;92.80;;;;;;6215126;23;20055;-79
2022/06/12 07:03:44;;;;;;;1.65;1.55;;;24.40;93.10;;;;;;6215002;23;20000;-79
2022/06/12 07:06:12;;;;;;;1.70;1.60;;;24.50;94.00;;;;;;6214895;23;20004;-79
2022/06/12 07:08:39;;;;;;;2.08;1.92;;;24.50;93.90;;;;;;6215052;23;20008;-79
2022/06/12 07:11:04;;;;;;;2.83;1.98;;;24.60;94.20;;;;;;6215022;23;20008;-79
2022/06/12 07:13:30;;;;;;;2.08;1.88;;;24.60;94.70;;;;;;6215104;23;20011;-79
2022/06/12 07:15:56;;;;;;;2.20;1.98;;;24.60;93.80;;;;;;6214929;23;20004;-79
2022/06/12 07:18:22;;;;;;;2.75;2.17;;;24.70;94.10;;;;;;6214754;23;20012;-79
2022/06/12 07:20:55;;;;;;;2.40;1.90;;;24.70;94.40;;;;;;6215001;23;20345;-79
2022/06/12 07:23:22;;;;;;;2.03;1.88;;;24.70;94.20;;;;;;6188066;23;20000;-79
2022/06/12 07:26:03;;;;;;;10.02;2.08;;;24.80;93.90;;;;;;6214834;23;20082;-80
2022/06/12 07:28:29;;;;;;;1.80;1.70;;;24.80;93.00;;;;;;6215100;23;20027;-79
2022/06/12 07:30:55;;;;;;;2.97;2.10;;;24.80;93.50;;;;;;6215062;23;20059;-79
2022/06/12 07:33:22;;;;;;;3.78;2.20;;;24.80;92.60;;;;;;6215049;23;20004;-80
2022/06/12 07:35:48;;;;;;;3.10;2.00;;;24.90;91.50;;;;;;6214735;23;20005;-79
2022/06/12 07:38:17;;;;;;;4.63;2.38;;;25.00;92.80;;;;;;6214687;23;20096;-79
2022/06/12 07:40:46;;;;;;;2.35;1.92;;;25.00;92.60;;;;;;6214816;23;19996;-79
2022/06/12 07:43:12;;;;;;;4.38;2.83;;;25.10;92.80;;;;;;6188078;23;20078;-79
2022/06/12 07:45:41;;;;;;;4.20;1.98;;;25.10;92.90;;;;;;6214733;23;20441;-79
2022/06/12 07:48:07;;;;;;;3.75;2.45;;;25.10;92.40;;;;;;6188345;23;20506;-79
2022/06/12 07:50:33;;;;;;;2.42;2.22;;;25.20;90.90;;;;;;6214669;23;20004;-79
2022/06/12 07:52:59;;;;;;;2.75;1.83;;;25.20;90.90;;;;;;6214784;23;20445;-79
2022/06/12 07:55:26;;;;;;;2.30;2.10;;;25.30;91.00;;;;;;6214575;23;20075;-80
2022/06/12 07:57:53;;;;;;;2.78;2.58;;;25.40;90.20;;;;;;6214140;23;20001;-79
2022/06/12 08:00:19;;;;;;;1.77;1.67;;;25.40;89.50;;;;;;6188002;23;20000;-79
2022/06/12 08:02:46;;;;;;;3.83;2.10;;;25.50;90.10;;;;;;6214380;23;20455;-79
2022/06/12 08:05:14;;;;;;;2.45;2.10;;;25.50;89.80;;;;;;6214111;23;20000;-79
2022/06/12 08:07:40;;;;;;;3.17;2.90;;;25.60;87.80;;;;;;6214536;23;20016;-80
2022/06/12 08:10:06;;;;;;;1.88;1.77;;;25.60;88.50;;;;;;6214555;23;20264;-79
2022/06/12 08:12:35;;;;;;;2.75;1.90;;;25.60;88.60;;;;;;6187744;23;20008;-79
2022/06/12 08:15:00;;;;;;;2.17;2.08;;;25.60;89.70;;;;;;6214294;23;20555;-79
2022/06/12 08:17:26;;;;;;;2.20;2.10;;;25.60;90.00;;;;;;6214299;23;20032;-79
2022/06/12 08:22:36;;;;;;;1.80;1.70;;;25.70;89.00;;;;;;6214136;23;20011;-79
2022/06/12 08:25:02;;;;;;;2.15;2.05;;;25.70;90.10;;;;;;6214150;23;20001;-79
2022/06/12 08:27:28;;;;;;;2.50;2.30;;;25.70;90.00;;;;;;6214277;23;20026;-79
2022/06/12 08:29:54;;;;;;;2.50;2.30;;;25.80;90.80;;;;;;6214487;23;20433;-79
2022/06/12 08:32:21;;;;;;;2.72;2.08;;;25.90;90.80;;;;;;6214356;23;20004;-79
2022/06/12 08:34:59;;;;;;;6.30;2.05;;;26.00;90.60;;;;;;6214161;23;20004;-79
2022/06/12 08:37:30;;;;;;;4.43;2.35;;;26.10;91.10;;;;;;6214168;23;20394;-79
2022/06/12 08:39:56;;;;;;;1.87;1.77;;;26.10;90.90;;;;;;6187600;23;20059;-79
2022/06/12 08:42:34;;;;;;;2.70;2.33;;;26.10;90.30;;;;;;6214240;23;20001;-80
2022/06/12 08:45:15;;;;;;;2.20;2.00;;;26.30;90.90;;;;;;6214052;23;20020;-79
2022/06/12 08:48:19;;;;;;;3.50;2.42;;;26.30;90.60;;;;;;6187362;23;20090;-79
2022/06/12 08:50:55;;;;;;;2.63;2.40;;;26.30;91.10;;;;;;6186894;23;20744;-80
2022/06/12 08:53:30;;;;;;;3.13;2.10;;;26.50;91.90;;;;;;6213990;23;20008;-79
2022/06/12 08:56:15;;;;;;;2.42;2.28;;;26.70;90.60;;;;;;6213859;23;20374;-80
2022/06/12 08:58:51;;;;;;;1.67;1.58;;;26.70;89.80;;;;;;6213658;23;20001;-80
2022/06/12 09:01:17;;;;;;;1.98;1.83;;;26.80;88.30;;;;;;6187370;23;20380;-80
2022/06/12 09:03:49;;;;;;;2.05;1.92;;;26.70;82.10;;;;;;6213462;23;20009;-80
2022/06/12 09:06:39;;;;;;;1.88;1.75;;;26.70;81.00;;;;;;6213696;23;20009;-80
2022/06/12 09:09:16;;;;;;;1.88;1.77;;;26.70;80.80;;;;;;6213756;23;20062;-79
2022/06/12 09:11:47;;;;;;;2.00;1.70;;;26.80;82.70;;;;;;6213761;23;20004;-80
2022/06/12 09:14:48;;;;;;;1.50;1.40;;;26.80;82.10;;;;;;6213757;23;20009;-80
2022/06/12 09:17:19;;;;;;;2.22;2.13;;;26.70;81.00;;;;;;6092168;23;20010;-80
2022/06/12 09:20:09;;;;;;;2.92;1.90;;;26.70;83.70;;;;;;6193236;23;20070;-80
2022/06/12 09:23:10;;;;;;;2.17;1.92;;;26.80;84.50;;;;;;6213570;23;20444;-80
2022/06/12 09:26:05;;;;;;;2.28;1.70;;;26.90;80.90;;;;;;6197535;23;20004;-79
2022/06/12 09:28:49;;;;;;;2.13;1.95;;;26.90;83.30;;;;;;6213951;23;20315;-79
2022/06/12 09:31:50;;;;;;;2.92;1.70;;;27.00;83.20;;;;;;6213711;23;20004;-80
2022/06/12 09:34:38;;;;;;;1.75;1.65;;;27.10;81.50;;;;;;6196732;23;20452;-80
2022/06/12 09:40:33;;;;;;;1.85;1.75;;;27.30;80.80;;;;;;6212555;23;20027;-80
2022/06/12 09:43:31;;;;;;;2.13;1.92;;;27.40;84.10;;;;;;6212416;23;20070;-80
2022/06/12 09:46:11;;;;;;;3.67;1.80;;;27.50;83.70;;;;;;6203703;23;20012;-79
2022/06/12 09:48:49;;;;;;;2.30;2.00;;;27.60;81.50;;;;;;6212339;23;20000;-80
2022/06/12 09:51:14;;;;;;;2.22;2.00;;;27.60;82.30;;;;;;6212284;23;20000;-80
2022/06/12 09:53:52;;;;;;;2.40;2.20;;;27.60;83.00;;;;;;6212109;23;20476;-80
2022/06/12 09:56:33;;;;;;;3.40;2.22;;;27.60;82.90;;;;;;6212207;23;20008;-80
2022/06/12 09:59:15;;;;;;;2.33;1.73;;;27.70;84.90;;;;;;6212555;23;20008;-79
2022/06/12 10:01:43;;;;;;;;;;;27.80;79.10;;;;;;6212793;23;20004;-80
2022/06/12 10:04:36;;;;;;;1.73;1.45;;;27.90;77.50;;;;;;6211887;23;20320;-80
2022/06/12 10:07:02;;;;;;;1.67;1.58;;;27.90;75.30;;;;;;6212424;23;20005;-79
2022/06/12 10:09:35;;;;;;;1.50;1.40;;;27.90;75.70;;;;;;6212205;23;20379;-79
2022/06/12 10:12:10;;;;;;;1.80;1.70;;;27.80;75.00;;;;;;6212389;23;20000;-80
2022/06/12 10:14:41;;;;;;;1.33;1.33;;;28.00;74.40;;;;;;6212318;23;20055;-79
2022/06/12 10:17:17;;;;;;;1.88;1.77;;;28.00;74.80;;;;;;6212577;23;20001;-80
2022/06/12 10:20:04;;;;;;;2.10;1.50;;;28.00;73.00;;;;;;6213062;23;20008;-80
2022/06/12 10:22:47;;;;;;;2.35;1.52;;;28.00;71.60;;;;;;6186389;23;20004;-80
2022/06/12 10:25:21;;;;;;;1.80;1.63;;;28.10;72.10;;;;;;6213196;23;20444;-79
2022/06/12 10:28:10;;;;;;;1.40;1.30;;;28.30;72.70;;;;;;6214402;23;20007;-80
2022/06/12 10:30:45;;;;;;;1.65;1.48;;;28.60;73.30;;;;;;6211809;23;20345;-80
2022/06/12 10:33:22;;;;;;;1.63;1.52;;;28.60;68.10;;;;;;6207524;23;20649;-80
2022/06/12 10:35:53;;;;;;;3.10;1.77;;;28.70;71.60;;;;;;6206597;23;20005;-80
2022/06/12 10:38:21;;;;;;;1.90;1.80;;;28.80;66.30;;;;;;6207959;23;20009;-79
2022/06/12 10:40:50;;;;;;;1.52;1.33;;;28.80;67.80;;;;;;6207072;23;20388;-80
2022/06/12 10:43:47;;;;;;;1.42;1.20;;;28.80;66.20;;;;;;6209061;23;20282;-80
2022/06/12 10:46:39;;;;;;;1.70;1.60;;;28.80;66.40;;;;;;6183130;23;20055;-80
2022/06/12 10:49:06;;;;;;;;;;;28.90;67.00;;;;;;6201601;23;20031;-80
2022/06/12 10:51:38;;;;;;;1.33;1.23;;;29.00;66.80;;;;;;6208804;23;20317;-79
2022/06/12 10:54:15;;;;;;;1.58;1.30;;;29.10;64.80;;;;;;6206217;23;20027;-80
2022/06/12 10:57:28;;;;;;;2.75;1.40;;;29.20;65.00;;;;;;6209295;23;20001;-80
2022/06/12 10:59:59;;;;;;;1.33;1.33;;;29.20;66.00;;;;;;6098787;23;20013;-79
2022/06/12 11:02:59;;;;;;;1.50;1.40;;;29.30;64.50;;;;;;6210307;23;20001;-79
2022/06/12 11:05:40;;;;;;;1.17;1.17;;;29.30;64.50;;;;;;6179155;23;20032;-79
2022/06/12 11:08:20;;;;;;;1.27;1.17;;;29.10;64.50;;;;;;6206447;23;20005;-79
2022/06/12 11:11:18;;;;;;;1.60;1.50;;;29.20;64.20;;;;;;6206921;23;20008;-79
2022/06/12 11:14:13;;;;;;;2.72;1.35;;;29.20;63.60;;;;;;6205786;23;20083;-80
2022/06/12 11:16:57;;;;;;;1.35;1.35;;;29.10;65.30;;;;;;6195752;23;20016;-80
2022/06/12 11:19:48;;;;;;;3.78;1.30;;;29.00;64.90;;;;;;6204757;23;20012;-80
2022/06/12 11:22:23;;;;;;;4.22;1.40;;;29.10;66.50;;;;;;6209727;23;20009;-80
2022/06/12 11:24:48;;;;;;;1.75;1.42;;;29.10;67.40;;;;;;6205541;23;20000;-80
2022/06/12 11:27:54;;;;;;;3.28;1.50;;;29.20;65.10;;;;;;6209677;23;20067;-79
2022/06/12 11:30:46;;;;;;;1.92;1.60;;;29.30;64.20;;;;;;6205253;23;20378;-80
2022/06/12 11:33:20;;;;;;;3.40;1.58;;;29.40;63.10;;;;;;6208488;23;20353;-79
2022/06/12 11:36:00;;;;;;;1.70;1.60;;;29.50;63.80;;;;;;6206759;23;20122;-80
2022/06/12 11:38:29;;;;;;;1.40;1.30;;;29.60;64.20;;;;;;6207736;23;20008;-79
2022/06/12 11:41:12;;;;;;;1.63;1.50;;;29.80;63.00;;;;;;6179964;23;20016;-79
2022/06/12 11:43:43;;;;;;;1.90;1.70;;;29.90;62.60;;;;;;6182370;23;20337;-80
2022/06/12 11:46:44;;;;;;;1.58;1.35;;;29.90;61.20;;;;;;6205936;23;19997;-80
2022/06/12 11:49:30;;;;;;;1.40;1.30;;;30.10;61.60;;;;;;6207870;23;20005;-80
2022/06/12 11:52:39;;;;;;;3.13;1.70;;;30.30;62.90;;;;;;6165237;23;20036;-80
2022/06/12 11:55:14;;;;;;;1.80;1.67;;;30.50;61.70;;;;;;6146631;23;20013;-80
2022/06/12 11:57:53;;;;;;;2.20;1.83;;;30.60;59.40;;;;;;6180488;23;20008;-80
2022/06/12 12:00:32;;;;;;;2.13;2.03;;;30.80;62.00;;;;;;6180128;23;20011;-80
2022/06/12 12:03:00;;;;;;;2.03;1.50;;;31.00;63.20;;;;;;6207169;23;20125;-80
2022/06/12 12:05:45;;;;;;;1.60;1.50;;;31.20;56.50;;;;;;6206983;23;20001;-80
2022/06/12 12:08:45;;;;;;;1.23;1.10;;;31.20;57.40;;;;;;6207216;23;20005;-80
2022/06/12 12:11:14;;;;;;;1.52;1.42;;;31.20;54.30;;;;;;6210597;23;20004;-80
2022/06/12 12:13:44;;;;;;;1.40;1.30;;;31.30;54.10;;;;;;6214237;23;20001;-80
2022/06/12 12:16:16;;;;;;;1.58;1.48;;;31.20;55.10;;;;;;6214342;23;20009;-79
2022/06/12 12:18:53;;;;;;;1.40;1.30;;;31.30;54.00;;;;;;6186966;23;20345;-80
2022/06/12 12:21:52;;;;;;;1.38;1.27;;;31.30;54.20;;;;;;6214190;23;19997;-80
2022/06/12 12:24:27;;;;;;;1.70;1.38;;;31.40;54.10;;;;;;6214147;23;19997;-80
2022/06/12 12:26:57;;;;;;;2.10;1.50;;;31.60;54.40;;;;;;6214127;23;20047;-79
2022/06/12 12:29:27;;;;;;;1.83;1.58;;;31.70;52.70;;;;;;6214091;23;20448;-79
2022/06/12 12:31:54;;;;;;;2.58;1.25;;;31.90;53.90;;;;;;6214121;23;20064;-79
2022/06/12 12:34:23;;;;;;;2.92;1.20;;;31.90;53.50;;;;;;6214037;23;20001;-80
2022/06/12 12:42:29;;;;;;;2.90;1.55;;;32.30;51.50;;;;;;6214192;23;20011;-79
2022/06/12 12:44:56;;;;;;;2.10;1.15;;;32.20;50.40;;;;;;6214029;23;19997;-79
2022/06/12 12:47:26;;;;;;;1.17;1.17;;;32.20;51.40;;;;;;6213694;23;20011;-79
2022/06/12 12:50:13;;;;;;;1.52;1.42;;;32.00;47.20;;;;;;6213866;23;20513;-79
2022/06/12 12:52:54;;;;;;;1.92;1.60;;;32.30;49.50;;;;;;6213517;23;20012;-79
2022/06/12 12:55:23;;;;;;;0.95;0.95;;;32.50;50.10;;;;;;6185814;23;20004;-79
2022/06/12 12:57:51;;;;;;;1.60;1.50;;;32.60;47.50;;;;;;6212548;23;20393;-79
2022/06/12 13:00:16;;;;;;;2.03;1.52;;;32.70;49.30;;;;;;6212869;23;20087;-79
2022/06/12 13:02:54;;;;;;;1.73;1.20;;;32.80;48.80;;;;;;6213087;23;20027;-80
2022/06/12 13:05:26;;;;;;;1.65;1.45;;;32.90;47.00;;;;;;6213888;23;20024;-79
2022/06/12 13:08:18;;;;;;;1.85;1.58;;;33.00;48.40;;;;;;6213836;23;20384;-79
2022/06/12 13:11:07;;;;;;;1.48;1.38;;;33.10;48.80;;;;;;6211945;23;20072;-79
2022/06/12 13:14:02;;;;;;;1.38;1.27;;;33.20;50.90;;;;;;6173061;23;20012;-79
2022/06/12 13:16:51;;;;;;;3.08;1.50;;;33.30;48.70;;;;;;6213703;23;20004;-77
2022/06/12 13:19:41;;;;;;;1.45;1.40;;;33.10;48.60;;;;;;6213310;23;20044;-74
2022/06/12 13:22:25;;;;;;;1.50;1.40;;;33.30;49.30;;;;;;6185898;23;20058;-74
2022/06/12 13:25:07;;;;;;;2.03;1.80;;;33.20;48.20;;;;;;6212781;23;19996;-74
2022/06/12 13:27:47;;;;;;;2.22;1.90;;;33.40;50.90;;;;;;6211251;23;20429;-74
2022/06/12 13:30:26;;;;;;;1.70;1.60;;;33.20;50.30;;;;;;6184350;23;20055;-74
2022/06/12 13:32:52;;;;;;;1.70;1.60;;;33.40;51.10;;;;;;6211093;23;20001;-74
2022/06/12 13:35:20;;;;;;;2.00;1.90;;;33.60;52.10;;;;;;6211876;23;20005;-74
2022/06/12 13:37:49;;;;;;;1.48;1.48;;;33.70;50.70;;;;;;6212037;23;20011;-74
2022/06/12 13:40:33;;;;;;;2.38;2.28;;;33.70;50.10;;;;;;6213197;23;19997;-74
2022/06/12 13:43:11;;;;;;;3.03;1.70;;;33.60;50.20;;;;;;6183899;23;20009;-74
2022/06/12 13:45:37;;;;;;;1.70;1.60;;;33.70;52.40;;;;;;6186708;23;20011;-74